createdAt,value
2018-06-12T00:00:20.246Z,98252.14
2018-06-12T00:02:49.649Z,98253.94
2018-06-12T00:05:18.841Z,98254.95
2018-06-12T00:07:48.129Z,98254.05
2018-06-12T00:10:17.292Z,98258.72
2018-06-12T00:12:47.138Z,98254.99
2018-06-12T00:15:17.457Z,98253.66
2018-06-12T00:17:46.867Z,98253.09
2018-06-12T00:20:16.488Z,98256.77
2018-06-12T00:22:46.326Z,98256.54
2018-06-12T00:25:15.841Z,98259.22
2018-06-12T00:27:47.002Z,98263.50
2018-06-12T00:30:17.239Z,98258.58
2018-06-12T00:32:46.861Z,98257.23
2018-06-12T00:35:16.089Z,98251.91
2018-06-12T00:37:45.438Z,98250.25
2018-06-12T00:40:14.880Z,98254.25
2018-06-12T00:42:44.168Z,98267.75
2018-06-12T00:45:13.890Z,98265.08
2018-06-12T00:47:43.739Z,98273.65
2018-06-12T00:50:13.297Z,98277.35
2018-06-12T00:52:42.643Z,98278.58
2018-06-12T00:55:12.113Z,98280.03
2018-06-12T00:57:41.574Z,98282.41
2018-06-12T01:00:10.912Z,98279.82
2018-06-12T01:02:41.484Z,98277.81
2018-06-12T01:05:10.919Z,98276.00
2018-06-12T01:07:40.186Z,98281.16
2018-06-12T01:10:09.432Z,98282.85
2018-06-12T01:12:38.651Z,98289.11
2018-06-12T01:15:07.814Z,98287.12
2018-06-12T01:17:37.043Z,98283.43
2018-06-12T01:20:06.339Z,98270.27
2018-06-12T01:22:35.740Z,98271.38
2018-06-12T01:25:05.533Z,98274.39
2018-06-12T01:27:34.856Z,98275.41
2018-06-12T01:30:04.199Z,98273.50
2018-06-12T01:32:33.911Z,98276.06
2018-06-12T01:35:03.379Z,98251.95
2018-06-12T01:37:32.885Z,98282.55
2018-06-12T01:40:02.505Z,98285.11
2018-06-12T01:42:31.788Z,98284.00
2018-06-12T01:45:00.973Z,98282.77
2018-06-12T01:47:30.506Z,98274.96
2018-06-12T01:50:00.804Z,98276.74
2018-06-12T01:52:30.114Z,98281.00
2018-06-12T01:54:59.426Z,98281.20
2018-06-12T01:57:28.721Z,98295.85
2018-06-12T01:59:58.221Z,98274.07
2018-06-12T02:02:27.523Z,98270.63
2018-06-12T02:04:57.015Z,98263.67
2018-06-12T02:07:26.439Z,98262.68
2018-06-12T02:09:55.722Z,98259.55
2018-06-12T02:12:24.931Z,98256.66
2018-06-12T02:14:54.125Z,98260.11
2018-06-12T02:17:23.321Z,98250.93
2018-06-12T02:19:52.455Z,98249.70
2018-06-12T02:22:21.621Z,98259.43
2018-06-12T02:24:50.812Z,98256.73
2018-06-12T02:27:20.001Z,98249.92
2018-06-12T02:29:49.212Z,98256.98
2018-06-12T02:32:18.413Z,98251.95
2018-06-12T02:34:47.696Z,98250.85
2018-06-12T02:37:16.990Z,98244.91
2018-06-12T02:39:46.247Z,98240.13
2018-06-12T02:42:15.498Z,98247.50
2018-06-12T02:44:44.690Z,98246.16
2018-06-12T02:47:13.898Z,98243.27
2018-06-12T02:49:43.116Z,98228.30
2018-06-12T02:52:13.202Z,98231.08
2018-06-12T02:54:42.498Z,98239.81
2018-06-12T02:57:11.719Z,98240.47
2018-06-12T02:59:40.904Z,98240.91
2018-06-12T03:02:10.099Z,98242.36
2018-06-12T03:04:39.296Z,98242.27
2018-06-12T03:07:08.604Z,98239.04
2018-06-12T03:09:37.945Z,98234.31
2018-06-12T03:12:07.259Z,98237.26
2018-06-12T03:14:36.617Z,98239.94
2018-06-12T03:17:06.115Z,98242.91
2018-06-12T03:19:35.467Z,98239.69
2018-06-12T03:22:04.610Z,98240.89
2018-06-12T03:24:34.513Z,98232.75
2018-06-12T03:27:03.802Z,98232.08
2018-06-12T03:29:33.147Z,98230.53
2018-06-12T03:32:05.789Z,98234.31
2018-06-12T03:34:37.448Z,98240.02
2018-06-12T03:37:06.847Z,98236.55
2018-06-12T03:39:40.087Z,98245.38
2018-06-12T03:42:11.332Z,98251.28
2018-06-12T03:44:40.674Z,98252.86
2018-06-12T03:47:10.460Z,98248.70
2018-06-12T03:49:39.834Z,98248.17
2018-06-12T03:52:09.222Z,98245.91
2018-06-12T03:54:39.269Z,98250.36
2018-06-12T03:57:08.440Z,98249.71
2018-06-12T03:59:37.645Z,98246.25
2018-06-12T04:02:06.935Z,98253.39
2018-06-12T04:04:36.231Z,98250.84
2018-06-12T04:07:05.332Z,98260.08
2018-06-12T04:09:34.530Z,98251.70
2018-06-12T04:12:03.785Z,98255.52
2018-06-12T04:14:33.142Z,98255.37
2018-06-12T04:17:02.342Z,98250.36
2018-06-12T04:19:31.629Z,98250.13
2018-06-12T04:22:00.938Z,98252.05
2018-06-12T04:24:30.210Z,98252.05
2018-06-12T04:26:59.639Z,98247.14
2018-06-12T04:29:29.651Z,98250.16
2018-06-12T04:31:59.346Z,98251.26
2018-06-12T04:34:28.855Z,98257.50
2018-06-12T04:36:58.045Z,98257.50
2018-06-12T04:39:27.321Z,98257.95
2018-06-12T04:41:56.480Z,98255.27
2018-06-12T04:44:25.659Z,98254.83
2018-06-12T04:46:54.961Z,98251.39
2018-06-12T04:49:24.171Z,98254.83
2018-06-12T04:51:53.746Z,98258.74
2018-06-12T04:54:22.893Z,98258.50
2018-06-12T04:56:52.119Z,98259.63
2018-06-12T04:59:21.214Z,98259.08
2018-06-12T05:01:57.519Z,98258.64
2018-06-12T05:04:26.753Z,98241.73
2018-06-12T05:06:56.049Z,98265.98
2018-06-12T05:09:25.213Z,98270.69
2018-06-12T05:11:54.699Z,98269.55
2018-06-12T05:14:23.950Z,98270.89
2018-06-12T05:16:53.354Z,98273.80
2018-06-12T05:19:22.524Z,98272.92
2018-06-12T05:21:52.506Z,98276.78
2018-06-12T05:24:22.482Z,98284.92
2018-06-12T05:26:51.706Z,98277.38
2018-06-12T05:29:20.903Z,98283.84
2018-06-12T05:31:50.055Z,98293.00
2018-06-12T05:34:19.252Z,98291.65
2018-06-12T05:36:48.331Z,98288.84
2018-06-12T05:39:17.685Z,98289.19
2018-06-12T05:41:46.851Z,98287.94
2018-06-12T05:44:16.007Z,98290.70
2018-06-12T05:46:45.140Z,98287.03
2018-06-12T05:49:14.230Z,98294.72
2018-06-12T05:51:43.426Z,98296.95
2018-06-12T05:54:13.481Z,98287.38
2018-06-12T05:56:42.689Z,98294.63
2018-06-12T05:59:11.962Z,98297.39
2018-06-12T06:01:41.222Z,98296.70
2018-06-12T06:04:10.619Z,98295.72
2018-06-12T06:06:40.141Z,98302.02
2018-06-12T06:09:09.464Z,98309.02
2018-06-12T06:11:38.733Z,98302.91
2018-06-12T06:14:08.599Z,98308.36
2018-06-12T06:16:37.881Z,98313.28
2018-06-12T06:19:07.550Z,98310.95
2018-06-12T06:21:36.749Z,98312.39
2018-06-12T06:24:06.046Z,98312.43
2018-06-12T06:26:35.156Z,98316.55
2018-06-12T06:29:04.331Z,98322.00
2018-06-12T06:31:36.817Z,98314.52
2018-06-12T06:34:06.819Z,98316.39
2018-06-12T06:36:37.835Z,98310.78
2018-06-12T06:39:08.465Z,98309.80
2018-06-12T06:41:37.577Z,98310.23
2018-06-12T06:44:07.987Z,98315.89
2018-06-12T06:46:37.534Z,98306.16
2018-06-12T06:49:12.162Z,98310.81
2018-06-12T06:51:41.831Z,98313.94
2018-06-12T06:54:10.993Z,98316.95
2018-06-12T06:56:40.264Z,98322.69
2018-06-12T06:59:09.522Z,98321.56
2018-06-12T07:01:38.781Z,98321.48
2018-06-12T07:04:08.381Z,98318.80
2018-06-12T07:06:38.796Z,98315.68
2018-06-12T07:09:09.366Z,98319.80
2018-06-12T07:11:41.038Z,98317.48
2018-06-12T07:14:10.311Z,98326.00
2018-06-12T07:16:39.661Z,98324.66
2018-06-12T07:19:08.868Z,98328.95
2018-06-12T07:21:38.289Z,98327.06
2018-06-12T07:24:08.106Z,98331.27
2018-06-12T07:26:37.406Z,98332.81
2018-06-12T07:29:06.861Z,98339.86
2018-06-12T07:31:36.418Z,98346.55
2018-06-12T07:34:06.274Z,98348.66
2018-06-12T07:36:35.575Z,98353.92
2018-06-12T07:39:08.154Z,98355.13
2018-06-12T07:41:37.492Z,98356.52
2018-06-12T07:44:06.730Z,98356.61
2018-06-12T07:46:36.014Z,98359.14
2018-06-12T07:49:05.349Z,98357.73
2018-06-12T07:51:34.762Z,98351.59
2018-06-12T07:54:04.028Z,98357.92
2018-06-12T07:56:33.184Z,98354.68
2018-06-12T07:59:02.387Z,98351.86
2018-06-12T08:01:31.850Z,98356.88
2018-06-12T08:04:01.053Z,98356.63
2018-06-12T08:06:30.204Z,98356.80
2018-06-12T08:08:59.584Z,98358.81
2018-06-12T08:11:28.819Z,98361.89
2018-06-12T08:13:58.287Z,98367.85
2018-06-12T08:16:27.449Z,98366.00
2018-06-12T08:18:56.727Z,98365.50
2018-06-12T08:21:26.020Z,98368.08
2018-06-12T08:23:55.300Z,98360.70
2018-06-12T08:26:24.554Z,98364.53
2018-06-12T08:28:53.782Z,98366.96
2018-06-12T08:31:24.606Z,98374.02
2018-06-12T08:33:54.766Z,98374.52
2018-06-12T08:36:24.038Z,98371.55
2018-06-12T08:38:53.324Z,98378.98
2018-06-12T08:41:22.549Z,98377.72
2018-06-12T08:43:51.947Z,98378.48
2018-06-12T08:46:21.298Z,98377.75
2018-06-12T08:48:51.906Z,98377.91
2018-06-12T08:51:21.204Z,98375.84
2018-06-12T08:53:50.307Z,98375.42
2018-06-12T08:56:19.530Z,98378.09
2018-06-12T08:58:48.720Z,98375.38
2018-06-12T09:01:18.021Z,98379.59
2018-06-12T09:03:47.337Z,98381.89
2018-06-12T09:06:16.628Z,98336.14
2018-06-12T09:08:45.997Z,98388.58
2018-06-12T09:11:15.990Z,98388.58
2018-06-12T09:13:45.434Z,98381.68
2018-06-12T09:16:14.703Z,98382.80
2018-06-12T09:18:43.988Z,98387.30
2018-06-12T09:21:13.291Z,98380.64
2018-06-12T09:23:43.645Z,98385.89
2018-06-12T09:26:12.826Z,98377.86
2018-06-12T09:28:42.170Z,98370.98
2018-06-12T09:31:11.781Z,98373.12
2018-06-12T09:33:41.463Z,98369.87
2018-06-12T09:36:16.419Z,98371.11
2018-06-12T09:38:45.641Z,98376.36
2018-06-12T09:41:14.900Z,98378.73
2018-06-12T09:43:44.093Z,98372.25
2018-06-12T09:46:13.500Z,98376.80
2018-06-12T09:48:42.858Z,98374.48
2018-06-12T09:51:12.064Z,98379.54
2018-06-12T09:53:41.239Z,98375.08
2018-06-12T09:56:10.593Z,98378.77
2018-06-12T09:58:39.698Z,98377.93
2018-06-12T10:01:20.957Z,98373.25
2018-06-12T10:03:52.269Z,98372.57
2018-06-12T10:06:21.494Z,98371.06
2018-06-12T10:08:50.604Z,98371.25
2018-06-12T10:11:19.913Z,98367.08
2018-06-12T10:13:48.968Z,98373.03
2018-06-12T10:16:18.238Z,98374.05
2018-06-12T10:18:47.393Z,98378.31
2018-06-12T10:21:16.553Z,98386.04
2018-06-12T10:23:45.922Z,98380.78
2018-06-12T10:26:15.335Z,98383.67
2018-06-12T10:28:44.652Z,98372.30
2018-06-12T10:31:15.080Z,98370.52
2018-06-12T10:33:45.071Z,98381.30
2018-06-12T10:36:14.416Z,98188.14
2018-06-12T10:38:43.884Z,98374.80
2018-06-12T10:41:13.056Z,98379.29
2018-06-12T10:43:42.841Z,98375.13
2018-06-12T10:46:12.061Z,98382.95
2018-06-12T10:48:42.532Z,98383.86
2018-06-12T10:51:11.943Z,98381.28
2018-06-12T10:53:41.465Z,98359.60
2018-06-12T10:56:10.670Z,98369.66
2018-06-12T10:58:40.009Z,98366.84
2018-06-12T11:01:09.682Z,98363.14
2018-06-12T11:03:39.376Z,98363.61
2018-06-12T11:06:08.634Z,98355.77
2018-06-12T11:08:37.859Z,98366.27
2018-06-12T11:11:07.182Z,98351.97
2018-06-12T11:13:36.433Z,98349.52
2018-06-12T11:18:48.067Z,98349.28
2018-06-12T11:21:18.014Z,98347.02
2018-06-12T11:23:47.820Z,98343.88
2018-06-12T11:26:17.242Z,98342.73
2018-06-12T11:28:46.793Z,98345.63
2018-06-12T11:31:16.822Z,98345.89
2018-06-12T11:33:47.195Z,98345.63
2018-06-12T11:36:16.347Z,98342.49
2018-06-12T11:38:45.997Z,98342.13
2018-06-12T11:41:16.067Z,98339.31
2018-06-12T11:43:45.444Z,98339.75
2018-06-12T11:46:14.685Z,98337.95
2018-06-12T11:48:44.075Z,98348.73
2018-06-12T11:51:14.018Z,98351.17
2018-06-12T11:53:44.282Z,98353.87
2018-06-12T11:56:13.780Z,98350.67
2018-06-12T11:58:43.421Z,98360.26
2018-06-12T12:01:13.227Z,98362.07
2018-06-12T12:03:42.503Z,98363.52
2018-06-12T12:06:12.956Z,98358.38
2018-06-12T12:08:42.303Z,98359.05
2018-06-12T12:11:14.638Z,98363.42
2018-06-12T12:13:45.147Z,98368.42
2018-06-12T12:16:16.110Z,98368.00
2018-06-12T12:18:45.353Z,98374.14
2018-06-12T12:21:15.178Z,98366.31
2018-06-12T12:23:44.444Z,98369.22
2018-06-12T12:26:13.833Z,98362.85
2018-06-12T12:28:43.200Z,98364.31
2018-06-12T12:31:13.478Z,98361.50
2018-06-12T12:33:42.868Z,98359.05
2018-06-12T12:36:12.272Z,98360.16
2018-06-12T12:38:42.386Z,98357.95
2018-06-12T12:41:11.973Z,98360.27
2018-06-12T12:43:41.392Z,98359.62
2018-06-12T12:46:13.577Z,98360.24
2018-06-12T12:48:43.019Z,98351.31
2018-06-12T12:51:13.657Z,98356.33
2018-06-12T12:53:43.843Z,98352.31
2018-06-12T12:56:15.366Z,98356.22
2018-06-12T12:58:44.648Z,98355.33
2018-06-12T13:01:13.877Z,98348.84
2018-06-12T13:03:43.125Z,98353.41
2018-06-12T13:06:12.930Z,98342.83
2018-06-12T13:08:42.253Z,98227.95
2018-06-12T13:11:11.527Z,98353.60
2018-06-12T13:13:40.706Z,98343.16
2018-06-12T13:16:09.894Z,98345.06
2018-06-12T13:18:39.214Z,98351.02
2018-06-12T13:21:08.534Z,98354.59
2018-06-12T13:23:37.903Z,98358.84
2018-06-12T13:26:07.476Z,98357.41
2018-06-12T13:28:36.871Z,98355.19
2018-06-12T13:31:06.270Z,98356.67
2018-06-12T13:33:36.135Z,98357.43
2018-06-12T13:36:05.963Z,98360.89
2018-06-12T13:38:35.401Z,98358.11
2018-06-12T13:41:05.643Z,98364.20
2018-06-12T13:43:34.980Z,98363.86
2018-06-12T13:46:04.264Z,98368.67
2018-06-12T13:48:33.585Z,98362.63
2018-06-12T13:51:02.899Z,98364.86
2018-06-12T13:53:32.538Z,98367.12
2018-06-12T13:56:01.930Z,98364.77
2018-06-12T13:58:31.143Z,98358.52
2018-06-12T14:01:01.159Z,98366.45
2018-06-12T14:03:30.384Z,98369.23
2018-06-12T14:05:59.576Z,98377.98
2018-06-12T14:08:28.712Z,98370.63
2018-06-12T14:11:05.223Z,98367.55
2018-06-12T14:13:34.479Z,98363.23
2018-06-12T14:16:04.539Z,98373.95
2018-06-12T14:18:36.523Z,98369.20
2018-06-12T14:21:07.409Z,98370.20
2018-06-12T14:23:37.841Z,98359.69
2018-06-12T14:26:08.431Z,98372.07
2018-06-12T14:28:39.949Z,98372.09
2018-06-12T14:31:09.386Z,98369.13
2018-06-12T14:33:38.709Z,98374.84
2018-06-12T14:36:08.050Z,98376.80
2018-06-12T14:38:37.480Z,98375.38
2018-06-12T14:41:08.219Z,98308.75
2018-06-12T14:43:38.176Z,98383.31
2018-06-12T14:46:07.953Z,98383.04
2018-06-12T14:48:38.089Z,98381.33
2018-06-12T14:51:10.019Z,98390.16
2018-06-12T14:53:39.624Z,98389.80
2018-06-12T14:56:09.864Z,98384.20
2018-06-12T14:58:39.075Z,98387.30
2018-06-12T15:01:10.243Z,98326.88
2018-06-12T15:03:40.286Z,98382.25
2018-06-12T15:06:10.824Z,98389.60
2018-06-12T15:08:42.820Z,98386.83
2018-06-12T15:11:15.066Z,98384.16
2018-06-12T15:13:46.382Z,98386.03
2018-06-12T15:16:16.684Z,98380.09
2018-06-12T15:18:48.575Z,98376.89
2018-06-12T15:21:18.806Z,98376.78
2018-06-12T15:23:48.285Z,98371.62
2018-06-12T15:26:17.954Z,98367.10
2018-06-12T15:28:47.476Z,98361.94
2018-06-12T15:31:16.976Z,98363.95
2018-06-12T15:33:46.414Z,98362.83
2018-06-12T15:36:15.608Z,98363.49
2018-06-12T15:38:44.909Z,98364.16
2018-06-12T15:41:14.067Z,98364.27
2018-06-12T15:43:43.271Z,98366.28
2018-06-12T15:46:12.449Z,98337.95
2018-06-12T15:48:41.689Z,98364.59
2018-06-12T15:51:10.888Z,98361.73
2018-06-12T15:53:40.796Z,98355.36
2018-06-12T15:56:09.930Z,98363.88
2018-06-12T15:58:39.274Z,98363.44
2018-06-12T16:01:08.498Z,98361.25
2018-06-12T16:03:38.129Z,98360.56
2018-06-12T16:06:07.367Z,98359.29
2018-06-12T16:08:36.633Z,98355.88
2018-06-12T16:11:05.858Z,98360.24
2018-06-12T16:13:35.002Z,98362.85
2018-06-12T16:16:04.146Z,98357.10
2018-06-12T16:18:33.580Z,98362.73
2018-06-12T16:21:03.732Z,98367.66
2018-06-12T16:23:32.917Z,98367.09
2018-06-12T16:26:02.383Z,98371.78
2018-06-12T16:28:32.396Z,98362.75
2018-06-12T16:31:01.626Z,98362.73
2018-06-12T16:33:30.854Z,98360.95
2018-06-12T16:36:00.165Z,98366.17
2018-06-12T16:38:29.964Z,98367.59
2018-06-12T16:40:59.405Z,98361.41
2018-06-12T16:43:29.411Z,98359.23
2018-06-12T16:45:58.830Z,98362.53
2018-06-12T16:48:28.810Z,98358.67
2018-06-12T16:51:03.968Z,98357.33
2018-06-12T16:53:33.182Z,98364.91
2018-06-12T16:56:02.356Z,98361.98
2018-06-12T16:58:31.641Z,98365.05
2018-06-12T17:01:00.827Z,98363.97
2018-06-12T17:03:29.981Z,98365.67
2018-06-12T17:05:59.088Z,98369.08
2018-06-12T17:08:28.460Z,98372.00
2018-06-12T17:10:57.677Z,98371.28
2018-06-12T17:13:26.835Z,97926.85
2018-06-12T17:15:56.034Z,98371.56
2018-06-12T17:18:25.262Z,98372.65
2018-06-12T17:20:54.467Z,98344.09
2018-06-12T17:23:23.632Z,98383.28
2018-06-12T17:25:52.749Z,98385.83
2018-06-12T17:28:21.833Z,98387.70
2018-06-12T17:30:50.880Z,98386.64
2018-06-12T17:33:20.028Z,98395.97
2018-06-12T17:35:49.170Z,98386.52
2018-06-12T17:38:18.422Z,98226.47
2018-06-12T17:40:47.625Z,98402.66
2018-06-12T17:43:16.918Z,98399.09
2018-06-12T17:45:46.170Z,98397.78
2018-06-12T17:48:15.410Z,98393.86
2018-06-12T17:50:44.564Z,98385.59
2018-06-12T17:53:13.698Z,98396.87
2018-06-12T17:55:42.858Z,98395.59
2018-06-12T17:58:12.072Z,98398.79
2018-06-12T18:00:41.354Z,98395.41
2018-06-12T18:03:10.629Z,98394.41
2018-06-12T18:05:39.877Z,98397.33
2018-06-12T18:08:08.956Z,98399.61
2018-06-12T18:10:38.134Z,98402.47
2018-06-12T18:13:07.282Z,98401.09
2018-06-12T18:15:36.552Z,98397.02
2018-06-12T18:18:05.885Z,98402.92
2018-06-12T18:20:35.090Z,98409.05
2018-06-12T18:23:04.541Z,98421.54
2018-06-12T18:25:34.107Z,98416.66
2018-06-12T18:28:03.323Z,98410.64
2018-06-12T18:30:32.510Z,98420.88
2018-06-12T18:33:01.704Z,98420.63
2018-06-12T18:35:30.921Z,98415.91
2018-06-12T18:38:00.116Z,98414.61
2018-06-12T18:40:29.242Z,98415.08
2018-06-12T18:42:58.440Z,98410.39
2018-06-12T18:45:29.271Z,98414.81
2018-06-12T18:47:58.587Z,98418.41
2018-06-12T18:50:27.715Z,98422.38
2018-06-12T18:52:56.854Z,98424.33
2018-06-12T18:55:26.001Z,98431.02
2018-06-12T18:57:55.193Z,98433.48
2018-06-12T19:00:24.379Z,98426.30
2018-06-12T19:02:53.530Z,98432.78
2018-06-12T19:05:22.667Z,98434.18
2018-06-12T19:07:51.819Z,98430.70
2018-06-12T19:10:20.953Z,98431.17
2018-06-12T19:12:50.600Z,98430.02
2018-06-12T19:15:19.806Z,98437.99
2018-06-12T19:17:49.017Z,98434.16
2018-06-12T19:20:18.304Z,98440.74
2018-06-12T19:22:47.671Z,98444.91
2018-06-12T19:25:16.886Z,98443.41
2018-06-12T19:27:46.428Z,98443.50
2018-06-12T19:30:15.717Z,98446.71
2018-06-12T19:32:44.938Z,98444.26
2018-06-12T19:35:14.251Z,98440.28
2018-06-12T19:37:43.446Z,98441.50
2018-06-12T19:40:12.630Z,98446.74
2018-06-12T19:42:41.990Z,98452.30
2018-06-12T19:45:12.043Z,98446.20
2018-06-12T19:47:41.248Z,98450.39
2018-06-12T19:50:10.559Z,98447.42
2018-06-12T19:52:39.818Z,98445.92
2018-06-12T19:55:09.070Z,98456.39
2018-06-12T19:57:38.231Z,98453.96
2018-06-12T20:00:07.422Z,98455.44
2018-06-12T20:02:36.606Z,98465.41
2018-06-12T20:05:05.762Z,98462.41
2018-06-12T20:07:34.931Z,98473.02
2018-06-12T20:10:04.040Z,98470.67
2018-06-12T20:12:33.210Z,98477.84
2018-06-12T20:15:03.055Z,98475.13
2018-06-12T20:17:32.632Z,98477.72
2018-06-12T20:20:01.766Z,98477.03
2018-06-12T20:22:30.865Z,98477.91
2018-06-12T20:25:00.051Z,98474.34
2018-06-12T20:27:29.591Z,98477.56
2018-06-12T20:29:58.719Z,98481.69
2018-06-12T20:32:28.634Z,98481.31
2018-06-12T20:34:57.834Z,98489.08
2018-06-12T20:37:26.998Z,98487.38
2018-06-12T20:40:02.816Z,98485.17
2018-06-12T20:42:31.914Z,98481.88
2018-06-12T20:45:01.207Z,98482.34
2018-06-12T20:47:30.313Z,98479.98
2018-06-12T20:49:59.434Z,98486.03
2018-06-12T20:52:28.579Z,98489.56
2018-06-12T20:54:57.699Z,98495.41
2018-06-12T20:57:26.852Z,98494.34
2018-06-12T20:59:55.972Z,98501.95
2018-06-12T21:02:25.076Z,98506.83
2018-06-12T21:04:54.343Z,98503.95
2018-06-12T21:07:24.152Z,98508.92
2018-06-12T21:09:53.287Z,98510.10
2018-06-12T21:12:22.744Z,98512.55
2018-06-12T21:14:52.058Z,98513.27
2018-06-12T21:17:21.265Z,98514.39
2018-06-12T21:19:50.497Z,98508.22
2018-06-12T21:22:19.975Z,98513.36
2018-06-12T21:24:49.701Z,98511.90
2018-06-12T21:27:18.876Z,98515.20
2018-06-12T21:29:48.118Z,98518.44
2018-06-12T21:32:18.604Z,98511.59
2018-06-12T21:34:49.002Z,98510.65
2018-06-12T21:37:18.340Z,98513.17
2018-06-12T21:39:48.143Z,98513.94
2018-06-12T21:42:17.353Z,98513.24
2018-06-12T21:44:46.442Z,98524.93
2018-06-12T21:47:16.107Z,98524.93
2018-06-12T21:49:45.214Z,98527.60
2018-06-12T21:52:14.391Z,98530.59
2018-06-12T21:54:43.629Z,98528.86
2018-06-12T21:57:12.773Z,98530.67
2018-06-12T21:59:41.935Z,98531.06
2018-06-12T22:02:11.142Z,98528.40
2018-06-12T22:04:40.343Z,98533.81
2018-06-12T22:07:09.620Z,98538.75
2018-06-12T22:09:38.757Z,98542.93
2018-06-12T22:12:07.906Z,98541.20
2018-06-12T22:14:37.126Z,98543.22
2018-06-12T22:17:06.296Z,98541.81
2018-06-12T22:19:35.510Z,98539.62
2018-06-12T22:22:04.640Z,98536.88
2018-06-12T22:24:33.809Z,98535.20
2018-06-12T22:27:02.915Z,98530.98
2018-06-12T22:29:32.085Z,98425.95
2018-06-12T22:32:01.232Z,98528.61
2018-06-12T22:34:30.342Z,98534.92
2018-06-12T22:36:59.529Z,98529.94
2018-06-12T22:39:28.713Z,98533.67
2018-06-12T22:41:57.956Z,98535.52
2018-06-12T22:44:27.108Z,98537.59
2018-06-12T22:46:56.354Z,98540.44
2018-06-12T22:49:25.448Z,98540.38
2018-06-12T22:51:54.593Z,98553.05
2018-06-12T22:54:23.766Z,98551.17
2018-06-12T22:56:52.940Z,98555.65
2018-06-12T22:59:22.168Z,98550.56
2018-06-12T23:01:51.379Z,98543.67
2018-06-12T23:04:20.568Z,98546.20
2018-06-12T23:06:49.740Z,98542.97
2018-06-12T23:09:18.871Z,98537.70
2018-06-12T23:11:48.071Z,98541.70
2018-06-12T23:14:17.198Z,98536.59
2018-06-12T23:16:46.332Z,98543.98
2018-06-12T23:19:15.442Z,98548.08
2018-06-12T23:21:55.887Z,98550.05
2018-06-12T23:24:25.088Z,98551.90
2018-06-12T23:26:54.292Z,98554.56
2018-06-12T23:29:23.400Z,98555.97
2018-06-12T23:31:52.519Z,98557.68
2018-06-12T23:34:21.658Z,98552.82
2018-06-12T23:36:50.914Z,98561.07
2018-06-12T23:39:20.088Z,98553.95
2018-06-12T23:41:49.077Z,98556.23
2018-06-12T23:44:18.783Z,98559.52
2018-06-12T23:46:47.917Z,98561.52
2018-06-12T23:49:17.034Z,98567.17
2018-06-12T23:51:46.158Z,98567.20
2018-06-12T23:54:15.429Z,98568.78
2018-06-12T23:56:44.851Z,98569.32
2018-06-12T23:59:13.952Z,98565.26
